createdAt,value
2022-11-19T00:00:11.449Z,7.93
2022-11-19T00:03:14.349Z,7.67
2022-11-19T00:06:18.777Z,7.57
2022-11-19T00:09:21.818Z,7.30
2022-11-19T00:12:41.991Z,7.17
2022-11-19T00:15:46.092Z,7.07
2022-11-19T00:18:48.823Z,6.88
2022-11-19T00:21:51.578Z,6.96
2022-11-19T00:24:54.293Z,6.73
2022-11-19T00:27:57.676Z,6.55
2022-11-19T00:31:06.690Z,6.46
2022-11-19T00:34:09.509Z,6.49
2022-11-19T00:37:12.238Z,6.58
2022-11-19T00:40:15.040Z,6.69
2022-11-19T00:43:35.178Z,6.55
2022-11-19T00:46:39.245Z,6.49
2022-11-19T00:49:42.132Z,5.90
2022-11-19T00:52:44.877Z,6.49
2022-11-19T00:55:47.576Z,6.34
2022-11-19T00:58:50.391Z,6.38
2022-11-19T01:01:54.516Z,6.36
2022-11-19T01:04:57.513Z,6.31
2022-11-19T01:08:00.238Z,6.30
2022-11-19T01:11:08.342Z,6.46
2022-11-19T01:14:11.245Z,6.40
2022-11-19T01:17:16.423Z,6.25
2022-11-19T01:20:19.253Z,6.09
2022-11-19T01:23:22.314Z,5.96
2022-11-19T01:26:25.740Z,5.94
2022-11-19T01:29:28.743Z,5.88
2022-11-19T01:32:32.969Z,5.88
2022-11-19T01:35:35.858Z,5.76
2022-11-19T01:38:38.703Z,5.75
2022-11-19T01:41:41.398Z,5.55
2022-11-19T01:45:02.038Z,5.32
2022-11-19T01:48:11.179Z,5.47
2022-11-19T01:51:17.728Z,5.36
2022-11-19T01:54:23.207Z,5.37
2022-11-19T01:57:25.990Z,5.36
2022-11-19T02:00:29.608Z,5.48
2022-11-19T02:03:34.306Z,5.43
2022-11-19T02:06:37.751Z,5.51
2022-11-19T02:09:45.071Z,5.37
2022-11-19T02:13:00.510Z,5.37
2022-11-19T02:16:09.443Z,5.25
2022-11-19T02:19:35.219Z,5.53
2022-11-19T02:23:00.840Z,5.31
2022-11-19T02:26:49.857Z,5.21
2022-11-19T02:30:13.351Z,5.32
2022-11-19T02:33:24.071Z,5.47
2022-11-19T02:36:29.441Z,5.22
2022-11-19T02:39:40.862Z,5.28
2022-11-19T02:42:51.295Z,5.14
2022-11-19T02:46:00.349Z,4.83
2022-11-19T02:49:03.790Z,4.93
2022-11-19T02:52:06.679Z,5.04
2022-11-19T02:55:13.028Z,4.62
2022-11-19T02:58:34.698Z,4.68
2022-11-19T03:02:00.760Z,4.71
2022-11-19T03:05:06.686Z,4.56
2022-11-19T03:08:09.418Z,4.48
2022-11-19T03:11:21.275Z,4.47
2022-11-19T03:14:44.460Z,4.33
2022-11-19T03:18:02.138Z,4.35
2022-11-19T03:21:09.577Z,4.40
2022-11-19T03:24:16.236Z,4.33
2022-11-19T03:27:24.138Z,4.08
2022-11-19T03:30:30.206Z,4.21
2022-11-19T03:33:40.139Z,4.29
2022-11-19T03:36:45.460Z,4.20
2022-11-19T03:39:51.410Z,4.34
2022-11-19T03:42:57.092Z,4.26
2022-11-19T03:46:02.011Z,3.96
2022-11-19T03:49:08.586Z,3.98
2022-11-19T03:52:14.223Z,4.14
2022-11-19T03:55:17.438Z,3.86
2022-11-19T03:58:20.170Z,4.02
2022-11-19T04:01:23.425Z,4.03
2022-11-19T04:04:39.529Z,4.01
2022-11-19T04:07:43.111Z,3.90
2022-11-19T04:10:45.820Z,3.74
2022-11-19T04:13:49.073Z,3.64
2022-11-19T04:16:52.237Z,3.69
2022-11-19T04:19:56.521Z,3.74
2022-11-19T04:22:59.195Z,3.68
2022-11-19T04:26:02.038Z,3.66
2022-11-19T04:29:04.824Z,3.88
2022-11-19T04:32:07.579Z,3.88
2022-11-19T04:35:11.906Z,3.71
2022-11-19T04:38:14.672Z,3.60
2022-11-19T04:41:17.418Z,3.64
2022-11-19T04:44:20.125Z,3.63
2022-11-19T04:47:22.889Z,3.65
2022-11-19T04:50:26.998Z,3.59
2022-11-19T04:53:29.755Z,3.57
2022-11-19T04:56:32.448Z,3.62
2022-11-19T04:59:35.146Z,3.77
2022-11-19T05:02:37.889Z,3.78
2022-11-19T05:05:41.924Z,3.78
2022-11-19T05:08:44.748Z,3.80
2022-11-19T05:11:47.420Z,3.78
2022-11-19T05:14:50.146Z,3.73
2022-11-19T05:17:52.847Z,3.75
2022-11-19T05:20:56.989Z,3.66
2022-11-19T05:23:59.673Z,3.63
2022-11-19T05:27:02.404Z,3.56
2022-11-19T05:30:05.738Z,3.50
2022-11-19T05:33:08.513Z,3.54
2022-11-19T05:36:12.591Z,3.60
2022-11-19T05:39:21.528Z,3.82
2022-11-19T05:42:25.016Z,3.74
2022-11-19T05:45:27.773Z,3.55
2022-11-19T05:48:30.944Z,3.44
2022-11-19T05:51:35.016Z,3.38
2022-11-19T05:54:37.759Z,3.24
2022-11-19T05:57:40.528Z,3.25
2022-11-19T06:00:43.354Z,3.37
2022-11-19T06:03:46.179Z,3.36
2022-11-19T06:06:50.591Z,3.24
2022-11-19T06:09:53.355Z,3.20
2022-11-19T06:12:56.042Z,3.23
2022-11-19T06:15:58.809Z,3.24
2022-11-19T06:19:01.887Z,3.30
2022-11-19T06:22:06.030Z,3.38
2022-11-19T06:25:09.570Z,3.27
2022-11-19T06:28:12.343Z,3.17
2022-11-19T06:31:15.333Z,3.18
2022-11-19T06:34:18.166Z,3.51
2022-11-19T06:37:22.362Z,3.15
2022-11-19T06:40:25.109Z,3.22
2022-11-19T06:43:27.916Z,3.06
2022-11-19T06:46:31.045Z,3.00
2022-11-19T06:49:33.726Z,2.94
2022-11-19T06:52:37.987Z,3.01
2022-11-19T06:55:40.835Z,3.07
2022-11-19T06:58:43.585Z,3.05
2022-11-19T07:01:46.353Z,2.94
2022-11-19T07:04:49.150Z,3.08
2022-11-19T07:07:53.827Z,3.20
2022-11-19T07:10:56.858Z,3.16
2022-11-19T07:13:59.951Z,3.36
2022-11-19T07:17:03.540Z,3.12
2022-11-19T07:20:07.506Z,2.92
2022-11-19T07:23:13.153Z,2.94
2022-11-19T07:26:16.223Z,2.87
2022-11-19T07:29:19.484Z,2.89
2022-11-19T07:32:22.638Z,2.97
2022-11-19T07:35:25.338Z,2.96
2022-11-19T07:38:35.671Z,2.73
2022-11-19T07:41:56.996Z,3.06
2022-11-19T07:44:59.729Z,3.09
2022-11-19T07:48:03.161Z,3.14
2022-11-19T07:51:05.860Z,3.37
2022-11-19T07:54:11.945Z,2.83
2022-11-19T07:57:14.798Z,3.34
2022-11-19T08:00:17.877Z,3.05
2022-11-19T08:03:20.771Z,3.27
2022-11-19T08:06:25.268Z,3.13
2022-11-19T08:09:29.326Z,3.25
2022-11-19T08:12:32.115Z,3.05
2022-11-19T08:15:35.360Z,3.20
2022-11-19T08:18:39.234Z,3.09
2022-11-19T08:21:43.721Z,3.06
2022-11-19T08:24:47.774Z,3.11
2022-11-19T08:27:50.436Z,3.14
2022-11-19T08:30:53.493Z,3.02
2022-11-19T08:33:56.716Z,2.98
2022-11-19T08:36:59.376Z,3.03
2022-11-19T08:40:03.419Z,3.11
2022-11-19T08:43:05.150Z,3.13
2022-11-19T08:46:08.922Z,3.28
2022-11-19T08:49:12.997Z,3.47
2022-11-19T08:52:16.015Z,3.43
2022-11-19T08:55:20.073Z,3.58
2022-11-19T08:58:23.349Z,3.42
2022-11-19T09:01:26.404Z,3.25
2022-11-19T09:04:29.196Z,3.25
2022-11-19T09:07:31.966Z,3.39
2022-11-19T09:10:36.169Z,3.34
2022-11-19T09:13:39.678Z,3.63
2022-11-19T09:16:42.559Z,3.48
2022-11-19T09:19:45.259Z,3.21
2022-11-19T09:22:47.957Z,3.60
2022-11-19T09:25:57.696Z,3.42
2022-11-19T09:29:07.568Z,3.32
2022-11-19T09:32:13.297Z,3.08
2022-11-19T09:35:18.368Z,3.29
2022-11-19T09:38:21.496Z,3.34
2022-11-19T09:41:45.200Z,3.35
2022-11-19T09:45:04.657Z,3.29
2022-11-19T09:48:18.068Z,3.22
2022-11-19T09:51:26.990Z,3.12
2022-11-19T09:54:29.785Z,3.24
2022-11-19T09:57:40.420Z,2.79
2022-11-19T10:00:44.777Z,2.92
2022-11-19T10:03:49.689Z,2.97
2022-11-19T10:07:01.883Z,2.91
2022-11-19T10:10:20.552Z,3.06
2022-11-19T10:13:40.034Z,2.97
2022-11-19T10:16:55.921Z,3.06
2022-11-19T10:20:11.977Z,2.90
2022-11-19T10:23:18.779Z,2.91
2022-11-19T10:26:28.010Z,2.67
2022-11-19T10:29:38.988Z,2.33
2022-11-19T10:32:45.129Z,2.06
2022-11-19T10:35:51.733Z,2.00
2022-11-19T10:39:02.908Z,2.13
2022-11-19T10:42:18.999Z,2.04
2022-11-19T10:45:27.075Z,2.22
2022-11-19T10:48:38.714Z,1.99
2022-11-19T10:51:42.864Z,2.05
2022-11-19T10:54:47.728Z,2.22
2022-11-19T10:57:54.126Z,2.34
2022-11-19T11:01:01.917Z,2.30
2022-11-19T11:04:09.018Z,2.22
2022-11-19T11:07:11.884Z,2.23
2022-11-19T11:10:34.849Z,2.20
2022-11-19T11:13:58.175Z,2.19
2022-11-19T11:17:03.790Z,2.08
2022-11-19T11:20:09.161Z,2.07
2022-11-19T11:23:15.091Z,2.05
2022-11-19T11:26:24.457Z,1.95
2022-11-19T11:29:27.844Z,1.99
2022-11-19T11:32:32.800Z,2.05
2022-11-19T11:35:38.574Z,2.14
2022-11-19T11:38:44.066Z,2.14
2022-11-19T11:42:05.378Z,2.13
2022-11-19T11:45:24.135Z,2.12
2022-11-19T11:48:34.472Z,2.20
2022-11-19T11:51:40.257Z,2.50
2022-11-19T11:54:57.530Z,2.61
2022-11-19T11:58:02.646Z,2.64
2022-11-19T12:01:15.910Z,2.74
2022-11-19T12:04:20.267Z,2.73
2022-11-19T12:07:39.247Z,2.71
2022-11-19T12:10:50.802Z,2.74
2022-11-19T12:13:59.785Z,2.72
2022-11-19T12:17:19.262Z,2.74
2022-11-19T12:20:32.229Z,2.75
2022-11-19T12:23:51.042Z,2.80
2022-11-19T12:27:09.158Z,2.83
2022-11-19T12:30:18.183Z,2.85
2022-11-19T12:33:36.680Z,2.79
2022-11-19T12:36:52.258Z,2.99
2022-11-19T12:39:56.730Z,2.75
2022-11-19T12:43:10.841Z,2.82
2022-11-19T12:46:21.674Z,2.82
2022-11-19T12:49:49.634Z,2.71
2022-11-19T12:53:13.882Z,2.77
2022-11-19T12:56:30.286Z,2.73
2022-11-19T12:59:47.456Z,2.80
2022-11-19T13:03:00.097Z,3.01
2022-11-19T13:06:08.571Z,2.85
2022-11-19T13:09:19.371Z,2.79
2022-11-19T13:12:27.071Z,2.98
2022-11-19T13:15:34.842Z,3.05
2022-11-19T13:18:42.836Z,3.04
2022-11-19T13:21:52.010Z,3.05
2022-11-19T13:25:01.071Z,2.90
2022-11-19T13:28:07.697Z,2.85
2022-11-19T13:31:16.882Z,2.42
2022-11-19T13:34:24.205Z,2.87
2022-11-19T13:37:40.993Z,2.88
2022-11-19T13:40:48.275Z,2.98
2022-11-19T13:44:09.245Z,2.88
2022-11-19T13:47:17.101Z,2.90
2022-11-19T13:50:24.149Z,2.76
2022-11-19T13:53:34.574Z,2.86
2022-11-19T13:56:47.834Z,2.75
2022-11-19T13:59:51.434Z,2.87
2022-11-19T14:03:22.098Z,2.82
2022-11-19T14:06:36.985Z,2.83
2022-11-19T14:09:50.074Z,2.91
2022-11-19T14:13:08.005Z,2.86
2022-11-19T14:16:42.875Z,2.89
2022-11-19T14:20:07.810Z,2.93
2022-11-19T14:23:39.364Z,2.97
2022-11-19T14:27:03.016Z,3.00
2022-11-19T14:30:10.625Z,2.95
2022-11-19T14:33:51.721Z,2.83
2022-11-19T14:36:56.658Z,2.97
2022-11-19T14:40:07.695Z,3.00
2022-11-19T14:43:44.744Z,2.85
2022-11-19T14:46:49.937Z,2.80
2022-11-19T14:49:53.815Z,2.81
2022-11-19T14:52:58.800Z,2.81
2022-11-19T14:56:02.969Z,2.80
2022-11-19T14:59:19.482Z,2.69
2022-11-19T15:02:28.086Z,2.63
2022-11-19T15:05:34.324Z,2.76
2022-11-19T15:08:51.653Z,2.75
2022-11-19T15:12:02.436Z,2.73
2022-11-19T15:15:32.197Z,2.67
2022-11-19T15:19:11.990Z,2.82
2022-11-19T15:22:36.045Z,2.75
2022-11-19T15:25:52.069Z,2.72
2022-11-19T15:29:07.301Z,2.59
2022-11-19T15:32:22.906Z,2.68
2022-11-19T15:35:53.274Z,2.61
2022-11-19T15:39:02.037Z,2.63
2022-11-19T15:42:11.740Z,2.62
2022-11-19T15:45:19.175Z,2.89
2022-11-19T15:48:26.581Z,2.90
2022-11-19T15:51:37.942Z,2.81
2022-11-19T15:54:43.678Z,2.81
2022-11-19T15:57:51.227Z,2.63
2022-11-19T16:00:58.101Z,2.76
2022-11-19T16:04:07.174Z,2.73
2022-11-19T16:07:12.013Z,2.65
2022-11-19T16:10:16.841Z,2.60
2022-11-19T16:13:42.637Z,2.49
2022-11-19T16:17:02.722Z,2.79
2022-11-19T16:20:22.579Z,2.71
2022-11-19T16:23:27.771Z,2.87
2022-11-19T16:26:30.665Z,2.78
2022-11-19T16:29:40.137Z,2.69
2022-11-19T16:32:42.893Z,2.73
2022-11-19T16:35:51.230Z,2.31
2022-11-19T16:38:57.002Z,2.83
2022-11-19T16:42:17.893Z,2.66
2022-11-19T16:45:24.385Z,2.77
2022-11-19T16:48:54.305Z,2.63
2022-11-19T16:51:57.976Z,2.73
2022-11-19T16:55:02.993Z,2.54
2022-11-19T16:58:17.304Z,2.55
2022-11-19T17:01:20.293Z,2.53
2022-11-19T17:04:25.893Z,2.34
2022-11-19T17:07:29.046Z,2.38
2022-11-19T17:10:34.753Z,2.43
2022-11-19T17:13:37.859Z,2.47
2022-11-19T17:16:40.799Z,2.46
2022-11-19T17:19:43.527Z,2.54
2022-11-19T17:22:46.240Z,2.54
2022-11-19T17:25:53.654Z,2.39
2022-11-19T17:29:01.975Z,2.39
2022-11-19T17:32:05.290Z,2.51
2022-11-19T17:35:10.221Z,2.44
2022-11-19T17:38:14.811Z,2.50
2022-11-19T17:41:42.911Z,2.50
2022-11-19T17:44:44.713Z,2.63
2022-11-19T17:47:47.613Z,2.42
2022-11-19T17:50:51.613Z,2.55
2022-11-19T17:53:54.424Z,2.41
2022-11-19T17:56:58.489Z,2.09
2022-11-19T18:00:03.217Z,2.35
2022-11-19T18:03:05.962Z,2.23
2022-11-19T18:06:12.588Z,2.23
2022-11-19T18:09:15.356Z,2.33
2022-11-19T18:12:20.712Z,2.32
2022-11-19T18:15:23.491Z,2.36
2022-11-19T18:18:26.304Z,2.30
2022-11-19T18:21:29.072Z,2.33
2022-11-19T18:24:31.950Z,2.30
2022-11-19T18:27:36.107Z,2.28
2022-11-19T18:30:38.953Z,2.29
2022-11-19T18:33:41.832Z,2.35
2022-11-19T18:36:44.528Z,2.26
2022-11-19T18:39:47.334Z,2.30
2022-11-19T18:43:08.974Z,2.36
2022-11-19T18:46:11.745Z,2.33
2022-11-19T18:49:16.861Z,2.45
2022-11-19T18:52:19.830Z,2.56
2022-11-19T18:55:22.749Z,2.54
2022-11-19T18:58:26.971Z,2.54
2022-11-19T19:01:30.722Z,2.55
2022-11-19T19:04:33.774Z,2.32
2022-11-19T19:07:36.899Z,2.40
2022-11-19T19:10:39.803Z,2.46
2022-11-19T19:13:44.005Z,2.35
2022-11-19T19:16:46.889Z,2.47
2022-11-19T19:19:50.247Z,2.55
2022-11-19T19:22:53.131Z,2.53
2022-11-19T19:25:58.452Z,2.34
2022-11-19T19:29:03.141Z,2.48
2022-11-19T19:32:06.422Z,2.35
2022-11-19T19:35:10.090Z,2.39
2022-11-19T19:38:12.887Z,2.38
2022-11-19T19:41:19.487Z,2.37
2022-11-19T19:44:23.653Z,2.32
2022-11-19T19:47:26.468Z,2.36
2022-11-19T19:50:30.253Z,2.34
2022-11-19T19:53:33.064Z,2.47
2022-11-19T19:56:35.853Z,2.45
2022-11-19T19:59:39.990Z,2.45
2022-11-19T20:02:42.746Z,2.49
2022-11-19T20:05:49.649Z,2.53
2022-11-19T20:08:52.967Z,2.65
2022-11-19T20:11:55.858Z,2.68
2022-11-19T20:14:59.913Z,2.66
2022-11-19T20:18:03.204Z,2.72
2022-11-19T20:21:07.787Z,2.57
2022-11-19T20:24:12.843Z,2.57
2022-11-19T20:27:15.958Z,2.53
2022-11-19T20:30:20.422Z,2.50
2022-11-19T20:33:23.749Z,2.54
2022-11-19T20:36:28.660Z,2.55
2022-11-19T20:39:31.453Z,2.51
2022-11-19T20:42:51.565Z,2.53
2022-11-19T20:45:55.773Z,2.56
2022-11-19T20:48:58.502Z,2.59
2022-11-19T20:52:02.408Z,2.62
2022-11-19T20:55:06.997Z,2.62
2022-11-19T20:58:09.998Z,2.61
2022-11-19T21:01:14.273Z,2.52
2022-11-19T21:04:17.270Z,2.60
2022-11-19T21:07:20.178Z,2.73
2022-11-19T21:10:22.988Z,2.80
2022-11-19T21:13:25.949Z,2.66
2022-11-19T21:16:30.092Z,2.65
2022-11-19T21:19:32.820Z,2.61
2022-11-19T21:22:35.543Z,2.82
2022-11-19T21:25:38.474Z,2.75
2022-11-19T21:28:41.460Z,2.72
2022-11-19T21:31:48.097Z,2.60
2022-11-19T21:34:50.847Z,2.55
2022-11-19T21:37:53.599Z,2.60
2022-11-19T21:40:56.899Z,2.71
2022-11-19T21:43:59.825Z,2.77
2022-11-19T21:47:03.986Z,2.77
2022-11-19T21:50:07.655Z,2.73
2022-11-19T21:53:11.919Z,2.63
2022-11-19T21:56:14.682Z,2.61
2022-11-19T21:59:17.436Z,2.78
2022-11-19T22:02:21.586Z,2.85
2022-11-19T22:05:24.683Z,2.68
2022-11-19T22:08:29.998Z,2.80
2022-11-19T22:11:32.744Z,2.78
2022-11-19T22:14:35.488Z,2.79
2022-11-19T22:17:40.232Z,2.71
2022-11-19T22:20:43.540Z,2.78
2022-11-19T22:23:46.230Z,2.72
2022-11-19T22:26:49.325Z,2.73
2022-11-19T22:29:54.866Z,2.64
2022-11-19T22:33:00.574Z,2.75
2022-11-19T22:36:09.822Z,2.74
2022-11-19T22:39:13.607Z,2.89
2022-11-19T22:42:16.356Z,2.89
2022-11-19T22:45:19.150Z,2.74
2022-11-19T22:48:23.215Z,2.67
2022-11-19T22:51:26.926Z,2.65
2022-11-19T22:54:29.624Z,2.69
2022-11-19T22:57:32.516Z,2.75
2022-11-19T23:00:43.361Z,2.74
2022-11-19T23:03:48.180Z,2.93
2022-11-19T23:06:50.906Z,2.95
2022-11-19T23:09:53.660Z,3.00
2022-11-19T23:13:13.871Z,2.95
2022-11-19T23:16:18.786Z,2.86
2022-11-19T23:19:23.552Z,2.72
2022-11-19T23:22:26.965Z,2.82
2022-11-19T23:25:29.819Z,2.81
2022-11-19T23:28:34.886Z,2.87
2022-11-19T23:31:40.263Z,2.86
2022-11-19T23:34:45.204Z,2.81
2022-11-19T23:37:48.267Z,2.69
2022-11-19T23:40:58.442Z,2.61
2022-11-19T23:44:01.938Z,2.95
2022-11-19T23:47:06.666Z,2.48
2022-11-19T23:50:11.508Z,2.88
2022-11-19T23:53:14.459Z,2.94
2022-11-19T23:56:18.766Z,2.95
2022-11-19T23:59:25.405Z,2.96
